الصفحة الرئيسية
METAR-TAF:

METAR-TAF

مطار :

جزر كوكس, أستراليا

دائرة عرض: 12-11S, خط طول: 096-49E, ارتفاع: 3 متر

مراقبة الطقس الحالي

تاريخ ووقت الإصدار 30 دقيقة قبل الساعة 08:30UTC
ريح 7 عقدة من الجنوب الشرقي
درجة الحرارة 28°درجة مئوية
الرطوبة 70%
ضغط 1010 hPa
الرؤية 10 كم أو أكثر
غيوم مفككة على ارتفاع 2500 قدم
ملبد بالغيوم على ارتفاع 3000 قدم

METAR: YPCC 260830Z AUTO 13007KT 9999 // BKN025 OVC030 28/22 Q1010

زمن: 15:30 (09:00 UTC)

توقعات

تاريخ ووقت الإصدار 3ساعات و 54 دقيقة قبل الساعة 05:06UTC
التوقعات صالحة من26 الساعة 06 UTC إلى 27 الساعة 06 UTC
ريح 10 عقدة من الشرق
الرؤية 10 كم أو أكثر
غيوم متفرقة على ارتفاع 2500 قدم
زخات من الأمطار الخفيفة

TAF: YPCC 260506Z 2606/2706 09010KT 9999 -SHRA SCT025

أرصاد الطقس والتوقعات من أكثر من 4000 مطار (تقارير الطقس للمطار METAR والتنبؤ بالطقس بالمطارTAF).

المحطات المتاحة هي النقط الصفراء والحمراء على الخريطة.

حرك المؤشر فوق النقطة لمعرفة اسم المحطة.

ثم انقر لمعرفة أرصاد وتوقعات الطقس.

لتغيير الخارطة: اضغط على الأزرار الخضراء مع رمز الصليب الأسود للتكبير. على الزر الأخضر مع شرطة للتصغير، أو على الأسهم الخضراء للخرائط المجاورة.


METAR-TAF: